sensor_id;sensor_type;location;lat;lon;timestamp;temperature;humidity
67899;DHT22;54699;51.796;10.956;2022-11-20T00:01:17;17.30;48.20
67899;DHT22;54699;51.796;10.956;2022-11-20T00:03:45;17.30;48.30
67899;DHT22;54699;51.796;10.956;2022-11-20T00:06:13;17.20;48.30
67899;DHT22;54699;51.796;10.956;2022-11-20T00:08:42;17.20;48.20
67899;DHT22;54699;51.796;10.956;2022-11-20T00:11:10;17.20;48.30
67899;DHT22;54699;51.796;10.956;2022-11-20T00:13:38;17.20;48.30
67899;DHT22;54699;51.796;10.956;2022-11-20T00:16:06;17.20;48.20
67899;DHT22;54699;51.796;10.956;2022-11-20T00:18:35;17.20;48.30
67899;DHT22;54699;51.796;10.956;2022-11-20T00:21:03;17.20;48.30
67899;DHT22;54699;51.796;10.956;2022-11-20T00:23:31;17.20;48.20
67899;DHT22;54699;51.796;10.956;2022-11-20T00:26:00;17.20;48.20
67899;DHT22;54699;51.796;10.956;2022-11-20T00:28:27;17.20;48.20
67899;DHT22;54699;51.796;10.956;2022-11-20T00:30:59;17.20;48.20
67899;DHT22;54699;51.796;10.956;2022-11-20T00:33:27;17.20;48.20
67899;DHT22;54699;51.796;10.956;2022-11-20T00:35:56;17.20;48.20
67899;DHT22;54699;51.796;10.956;2022-11-20T00:38:26;17.20;48.20
67899;DHT22;54699;51.796;10.956;2022-11-20T00:40:54;17.20;48.20
67899;DHT22;54699;51.796;10.956;2022-11-20T00:43:22;17.20;48.20
67899;DHT22;54699;51.796;10.956;2022-11-20T00:45:48;17.20;48.20
67899;DHT22;54699;51.796;10.956;2022-11-20T00:48:15;17.20;48.20
67899;DHT22;54699;51.796;10.956;2022-11-20T00:50:42;17.20;48.20
67899;DHT22;54699;51.796;10.956;2022-11-20T00:53:10;17.20;48.30
67899;DHT22;54699;51.796;10.956;2022-11-20T00:55:37;17.20;48.20
67899;DHT22;54699;51.796;10.956;2022-11-20T00:58:04;17.20;48.20
67899;DHT22;54699;51.796;10.956;2022-11-20T01:00:31;17.20;48.20
67899;DHT22;54699;51.796;10.956;2022-11-20T01:02:58;17.10;48.10
67899;DHT22;54699;51.796;10.956;2022-11-20T01:05:25;17.20;48.20
67899;DHT22;54699;51.796;10.956;2022-11-20T01:07:52;17.20;48.20
67899;DHT22;54699;51.796;10.956;2022-11-20T01:10:20;17.10;48.10
67899;DHT22;54699;51.796;10.956;2022-11-20T01:12:46;17.10;48.00
67899;DHT22;54699;51.796;10.956;2022-11-20T01:15:33;17.20;48.10
67899;DHT22;54699;51.796;10.956;2022-11-20T01:18:01;17.10;48.00
67899;DHT22;54699;51.796;10.956;2022-11-20T01:20:28;17.10;48.00
67899;DHT22;54699;51.796;10.956;2022-11-20T01:22:55;17.10;48.10
67899;DHT22;54699;51.796;10.956;2022-11-20T01:25:23;17.10;48.10
67899;DHT22;54699;51.796;10.956;2022-11-20T01:27:50;17.10;48.10
67899;DHT22;54699;51.796;10.956;2022-11-20T01:30:17;17.10;48.00
67899;DHT22;54699;51.796;10.956;2022-11-20T01:32:43;17.10;48.00
67899;DHT22;54699;51.796;10.956;2022-11-20T01:35:10;17.10;48.10
67899;DHT22;54699;51.796;10.956;2022-11-20T01:37:37;17.10;48.10
67899;DHT22;54699;51.796;10.956;2022-11-20T01:40:04;17.10;48.10
67899;DHT22;54699;51.796;10.956;2022-11-20T01:42:33;17.10;48.10
67899;DHT22;54699;51.796;10.956;2022-11-20T01:48:18;17.10;48.10
67899;DHT22;54699;51.796;10.956;2022-11-20T01:50:46;17.10;48.00
67899;DHT22;54699;51.796;10.956;2022-11-20T01:53:14;17.10;48.00
67899;DHT22;54699;51.796;10.956;2022-11-20T01:55:45;17.10;48.10
67899;DHT22;54699;51.796;10.956;2022-11-20T01:58:16;17.10;48.00
67899;DHT22;54699;51.796;10.956;2022-11-20T02:00:47;17.10;48.10
67899;DHT22;54699;51.796;10.956;2022-11-20T02:03:15;17.10;48.00
67899;DHT22;54699;51.796;10.956;2022-11-20T02:05:45;17.10;48.00
67899;DHT22;54699;51.796;10.956;2022-11-20T02:08:17;17.10;48.10
67899;DHT22;54699;51.796;10.956;2022-11-20T02:10:44;17.10;48.00
67899;DHT22;54699;51.796;10.956;2022-11-20T02:13:11;17.00;47.90
67899;DHT22;54699;51.796;10.956;2022-11-20T02:15:56;17.10;48.00
67899;DHT22;54699;51.796;10.956;2022-11-20T02:18:24;17.00;47.90
67899;DHT22;54699;51.796;10.956;2022-11-20T02:20:52;17.10;48.10
67899;DHT22;54699;51.796;10.956;2022-11-20T02:23:24;17.00;47.90
67899;DHT22;54699;51.796;10.956;2022-11-20T02:25:55;17.00;48.40
67899;DHT22;54699;51.796;10.956;2022-11-20T02:28:25;17.00;47.90
67899;DHT22;54699;51.796;10.956;2022-11-20T02:30:52;17.00;47.90
67899;DHT22;54699;51.796;10.956;2022-11-20T02:33:19;17.00;47.90
67899;DHT22;54699;51.796;10.956;2022-11-20T02:35:46;17.00;47.90
67899;DHT22;54699;51.796;10.956;2022-11-20T02:38:13;17.00;47.90
67899;DHT22;54699;51.796;10.956;2022-11-20T02:40:41;17.00;47.90
67899;DHT22;54699;51.796;10.956;2022-11-20T02:43:09;17.00;47.90
67899;DHT22;54699;51.796;10.956;2022-11-20T02:45:37;17.00;47.90
67899;DHT22;54699;51.796;10.956;2022-11-20T02:48:05;17.00;47.90
67899;DHT22;54699;51.796;10.956;2022-11-20T02:50:32;17.00;47.90
67899;DHT22;54699;51.796;10.956;2022-11-20T02:52:59;17.00;47.90
67899;DHT22;54699;51.796;10.956;2022-11-20T02:55:25;17.00;47.80
67899;DHT22;54699;51.796;10.956;2022-11-20T02:57:52;17.00;47.90
67899;DHT22;54699;51.796;10.956;2022-11-20T03:00:20;17.00;47.90
67899;DHT22;54699;51.796;10.956;2022-11-20T03:02:47;17.00;47.90
67899;DHT22;54699;51.796;10.956;2022-11-20T03:05:14;17.00;47.90
67899;DHT22;54699;51.796;10.956;2022-11-20T03:07:41;17.00;47.90
67899;DHT22;54699;51.796;10.956;2022-11-20T03:10:09;17.00;47.90
67899;DHT22;54699;51.796;10.956;2022-11-20T03:12:36;17.00;47.90
67899;DHT22;54699;51.796;10.956;2022-11-20T03:15:03;17.00;47.90
67899;DHT22;54699;51.796;10.956;2022-11-20T03:17:32;17.00;47.90
67899;DHT22;54699;51.796;10.956;2022-11-20T03:19:59;17.00;47.90
67899;DHT22;54699;51.796;10.956;2022-11-20T03:22:25;16.90;47.80
67899;DHT22;54699;51.796;10.956;2022-11-20T03:24:55;17.00;47.80
67899;DHT22;54699;51.796;10.956;2022-11-20T03:27:22;16.90;47.80
67899;DHT22;54699;51.796;10.956;2022-11-20T03:29:48;17.00;47.90
67899;DHT22;54699;51.796;10.956;2022-11-20T03:32:15;17.00;47.90
67899;DHT22;54699;51.796;10.956;2022-11-20T03:34:43;16.90;47.80
67899;DHT22;54699;51.796;10.956;2022-11-20T03:37:10;16.90;47.80
67899;DHT22;54699;51.796;10.956;2022-11-20T03:39:37;17.00;47.80
67899;DHT22;54699;51.796;10.956;2022-11-20T03:42:03;16.90;47.70
67899;DHT22;54699;51.796;10.956;2022-11-20T03:44:51;16.90;47.80
67899;DHT22;54699;51.796;10.956;2022-11-20T03:47:17;16.90;47.80
67899;DHT22;54699;51.796;10.956;2022-11-20T03:49:46;16.90;47.80
67899;DHT22;54699;51.796;10.956;2022-11-20T03:52:12;16.90;47.70
67899;DHT22;54699;51.796;10.956;2022-11-20T03:54:39;16.90;47.80
67899;DHT22;54699;51.796;10.956;2022-11-20T03:57:06;16.90;47.80
67899;DHT22;54699;51.796;10.956;2022-11-20T03:59:33;16.90;47.70
67899;DHT22;54699;51.796;10.956;2022-11-20T04:01:59;16.90;47.80
67899;DHT22;54699;51.796;10.956;2022-11-20T04:04:26;16.90;47.70
67899;DHT22;54699;51.796;10.956;2022-11-20T04:06:54;16.90;47.70
67899;DHT22;54699;51.796;10.956;2022-11-20T04:09:21;16.90;47.60
67899;DHT22;54699;51.796;10.956;2022-11-20T04:11:48;16.90;47.60
67899;DHT22;54699;51.796;10.956;2022-11-20T04:14:15;16.90;47.50
67899;DHT22;54699;51.796;10.956;2022-11-20T04:16:42;16.80;47.50
67899;DHT22;54699;51.796;10.956;2022-11-20T04:19:10;16.90;47.50
67899;DHT22;54699;51.796;10.956;2022-11-20T04:21:39;16.90;47.60
67899;DHT22;54699;51.796;10.956;2022-11-20T04:24:07;16.80;47.40
67899;DHT22;54699;51.796;10.956;2022-11-20T04:26:35;16.90;47.50
67899;DHT22;54699;51.796;10.956;2022-11-20T04:29:03;16.90;47.40
67899;DHT22;54699;51.796;10.956;2022-11-20T04:31:30;16.90;47.50
67899;DHT22;54699;51.796;10.956;2022-11-20T04:33:59;16.90;47.40
67899;DHT22;54699;51.796;10.956;2022-11-20T04:36:27;16.80;47.40
67899;DHT22;54699;51.796;10.956;2022-11-20T04:38:55;16.80;47.30
67899;DHT22;54699;51.796;10.956;2022-11-20T04:41:25;16.80;47.40
67899;DHT22;54699;51.796;10.956;2022-11-20T04:43:54;16.80;47.30
67899;DHT22;54699;51.796;10.956;2022-11-20T04:46:24;16.80;47.30
67899;DHT22;54699;51.796;10.956;2022-11-20T04:48:52;16.80;47.30
67899;DHT22;54699;51.796;10.956;2022-11-20T04:51:19;16.80;47.30
67899;DHT22;54699;51.796;10.956;2022-11-20T04:53:46;16.80;47.50
67899;DHT22;54699;51.796;10.956;2022-11-20T04:56:13;16.80;47.20
67899;DHT22;54699;51.796;10.956;2022-11-20T04:58:41;16.80;47.40
67899;DHT22;54699;51.796;10.956;2022-11-20T05:01:09;16.80;47.30
67899;DHT22;54699;51.796;10.956;2022-11-20T05:03:37;16.80;47.30
67899;DHT22;54699;51.796;10.956;2022-11-20T05:06:05;16.80;47.30
67899;DHT22;54699;51.796;10.956;2022-11-20T05:08:33;16.80;47.30
67899;DHT22;54699;51.796;10.956;2022-11-20T05:11:00;16.80;48.20
67899;DHT22;54699;51.796;10.956;2022-11-20T05:13:28;16.80;47.40
67899;DHT22;54699;51.796;10.956;2022-11-20T05:15:59;16.80;47.40
67899;DHT22;54699;51.796;10.956;2022-11-20T05:18:27;16.80;47.20
67899;DHT22;54699;51.796;10.956;2022-11-20T05:20:54;16.80;47.30
67899;DHT22;54699;51.796;10.956;2022-11-20T05:23:22;16.80;47.10
67899;DHT22;54699;51.796;10.956;2022-11-20T05:25:51;16.80;47.10
67899;DHT22;54699;51.796;10.956;2022-11-20T05:28:19;16.80;47.20
67899;DHT22;54699;51.796;10.956;2022-11-20T05:30:46;16.80;47.10
67899;DHT22;54699;51.796;10.956;2022-11-20T05:33:14;16.80;47.10
67899;DHT22;54699;51.796;10.956;2022-11-20T05:35:41;16.80;47.10
67899;DHT22;54699;51.796;10.956;2022-11-20T05:38:09;16.80;47.10
67899;DHT22;54699;51.796;10.956;2022-11-20T05:40:35;16.80;47.10
67899;DHT22;54699;51.796;10.956;2022-11-20T05:43:02;16.80;47.30
67899;DHT22;54699;51.796;10.956;2022-11-20T05:45:29;16.80;47.10
67899;DHT22;54699;51.796;10.956;2022-11-20T05:47:57;16.80;47.30
67899;DHT22;54699;51.796;10.956;2022-11-20T05:50:26;16.80;47.10
67899;DHT22;54699;51.796;10.956;2022-11-20T05:52:53;16.80;47.10
67899;DHT22;54699;51.796;10.956;2022-11-20T05:55:20;16.70;47.10
67899;DHT22;54699;51.796;10.956;2022-11-20T05:57:47;16.80;47.00
67899;DHT22;54699;51.796;10.956;2022-11-20T06:00:15;16.80;47.10
67899;DHT22;54699;51.796;10.956;2022-11-20T06:02:42;16.70;47.00
67899;DHT22;54699;51.796;10.956;2022-11-20T06:05:08;16.80;47.10
67899;DHT22;54699;51.796;10.956;2022-11-20T06:07:36;16.70;46.90
67899;DHT22;54699;51.796;10.956;2022-11-20T06:10:03;16.80;47.00
67899;DHT22;54699;51.796;10.956;2022-11-20T06:12:31;16.80;47.10
67899;DHT22;54699;51.796;10.956;2022-11-20T06:14:58;16.70;47.10
67899;DHT22;54699;51.796;10.956;2022-11-20T06:17:25;16.70;47.10
67899;DHT22;54699;51.796;10.956;2022-11-20T06:19:52;16.70;47.00
67899;DHT22;54699;51.796;10.956;2022-11-20T06:22:18;16.70;46.90
67899;DHT22;54699;51.796;10.956;2022-11-20T06:24:46;16.70;46.90
67899;DHT22;54699;51.796;10.956;2022-11-20T06:27:13;16.70;47.00
67899;DHT22;54699;51.796;10.956;2022-11-20T06:29:40;16.70;46.90
67899;DHT22;54699;51.796;10.956;2022-11-20T06:32:07;16.70;47.00
67899;DHT22;54699;51.796;10.956;2022-11-20T06:34:34;16.70;46.90
67899;DHT22;54699;51.796;10.956;2022-11-20T06:37:00;16.70;46.90
67899;DHT22;54699;51.796;10.956;2022-11-20T06:39:27;16.70;46.90
67899;DHT22;54699;51.796;10.956;2022-11-20T06:41:55;16.70;46.90
67899;DHT22;54699;51.796;10.956;2022-11-20T06:44:22;16.70;46.90
67899;DHT22;54699;51.796;10.956;2022-11-20T06:46:49;16.70;46.80
67899;DHT22;54699;51.796;10.956;2022-11-20T06:49:16;16.70;46.80
67899;DHT22;54699;51.796;10.956;2022-11-20T06:51:43;16.70;46.70
67899;DHT22;54699;51.796;10.956;2022-11-20T06:54:09;16.70;46.70
67899;DHT22;54699;51.796;10.956;2022-11-20T06:56:36;16.70;46.80
67899;DHT22;54699;51.796;10.956;2022-11-20T06:59:05;16.70;46.80
67899;DHT22;54699;51.796;10.956;2022-11-20T07:01:32;16.70;46.70
67899;DHT22;54699;51.796;10.956;2022-11-20T07:03:58;16.70;46.70
67899;DHT22;54699;51.796;10.956;2022-11-20T07:06:25;16.70;46.80
67899;DHT22;54699;51.796;10.956;2022-11-20T07:08:52;16.70;46.80
67899;DHT22;54699;51.796;10.956;2022-11-20T07:11:19;16.70;46.70
67899;DHT22;54699;51.796;10.956;2022-11-20T07:13:45;16.70;46.80
67899;DHT22;54699;51.796;10.956;2022-11-20T07:16:13;16.70;46.70
67899;DHT22;54699;51.796;10.956;2022-11-20T07:18:40;16.70;46.80
67899;DHT22;54699;51.796;10.956;2022-11-20T07:21:08;16.70;46.80
67899;DHT22;54699;51.796;10.956;2022-11-20T07:23:36;16.70;46.80
67899;DHT22;54699;51.796;10.956;2022-11-20T07:26:04;16.70;46.70
67899;DHT22;54699;51.796;10.956;2022-11-20T07:28:31;16.70;46.80
67899;DHT22;54699;51.796;10.956;2022-11-20T07:30:59;16.70;46.90
67899;DHT22;54699;51.796;10.956;2022-11-20T07:33:27;16.70;46.70
67899;DHT22;54699;51.796;10.956;2022-11-20T07:35:54;16.70;46.70
67899;DHT22;54699;51.796;10.956;2022-11-20T07:38:21;16.70;46.90
67899;DHT22;54699;51.796;10.956;2022-11-20T07:40:47;16.70;46.70
67899;DHT22;54699;51.796;10.956;2022-11-20T07:43:14;16.70;46.70
67899;DHT22;54699;51.796;10.956;2022-11-20T07:45:41;16.70;46.90
67899;DHT22;54699;51.796;10.956;2022-11-20T07:48:08;16.70;46.90
67899;DHT22;54699;51.796;10.956;2022-11-20T07:50:36;16.70;46.80
67899;DHT22;54699;51.796;10.956;2022-11-20T07:53:03;16.60;46.70
67899;DHT22;54699;51.796;10.956;2022-11-20T07:55:30;16.70;46.80
67899;DHT22;54699;51.796;10.956;2022-11-20T07:57:58;16.70;46.80
67899;DHT22;54699;51.796;10.956;2022-11-20T08:00:25;16.70;46.90
67899;DHT22;54699;51.796;10.956;2022-11-20T08:02:52;16.70;47.80
67899;DHT22;54699;51.796;10.956;2022-11-20T08:05:19;16.70;46.80
67899;DHT22;54699;51.796;10.956;2022-11-20T08:07:47;16.70;46.80
67899;DHT22;54699;51.796;10.956;2022-11-20T08:10:15;16.70;46.90
67899;DHT22;54699;51.796;10.956;2022-11-20T08:12:43;16.60;46.90
67899;DHT22;54699;51.796;10.956;2022-11-20T08:15:29;16.70;47.00
67899;DHT22;54699;51.796;10.956;2022-11-20T08:18:00;16.70;46.90
67899;DHT22;54699;51.796;10.956;2022-11-20T08:20:27;16.70;46.90
67899;DHT22;54699;51.796;10.956;2022-11-20T08:22:58;16.70;47.10
67899;DHT22;54699;51.796;10.956;2022-11-20T08:25:26;16.70;46.80
67899;DHT22;54699;51.796;10.956;2022-11-20T08:27:54;16.70;47.00
67899;DHT22;54699;51.796;10.956;2022-11-20T08:30:22;16.70;46.90
67899;DHT22;54699;51.796;10.956;2022-11-20T08:32:50;16.70;47.00
67899;DHT22;54699;51.796;10.956;2022-11-20T08:35:17;16.70;46.90
67899;DHT22;54699;51.796;10.956;2022-11-20T08:37:45;16.70;46.90
67899;DHT22;54699;51.796;10.956;2022-11-20T08:40:15;16.70;47.20
67899;DHT22;54699;51.796;10.956;2022-11-20T08:42:48;16.70;47.30
67899;DHT22;54699;51.796;10.956;2022-11-20T08:45:15;16.70;47.20
67899;DHT22;54699;51.796;10.956;2022-11-20T08:47:43;16.70;47.30
67899;DHT22;54699;51.796;10.956;2022-11-20T08:50:11;16.70;47.50
67899;DHT22;54699;51.796;10.956;2022-11-20T08:52:40;16.70;47.50
67899;DHT22;54699;51.796;10.956;2022-11-20T08:55:07;16.80;47.50
67899;DHT22;54699;51.796;10.956;2022-11-20T08:57:36;16.70;47.50
67899;DHT22;54699;51.796;10.956;2022-11-20T09:00:06;16.70;47.50
67899;DHT22;54699;51.796;10.956;2022-11-20T09:02:34;16.80;47.70
67899;DHT22;54699;51.796;10.956;2022-11-20T09:05:01;16.80;47.60
67899;DHT22;54699;51.796;10.956;2022-11-20T09:07:28;16.80;48.50
67899;DHT22;54699;51.796;10.956;2022-11-20T09:09:55;16.80;47.50
67899;DHT22;54699;51.796;10.956;2022-11-20T09:12:22;16.80;47.80
67899;DHT22;54699;51.796;10.956;2022-11-20T09:14:52;16.90;47.60
67899;DHT22;54699;51.796;10.956;2022-11-20T09:17:18;16.90;47.60
67899;DHT22;54699;51.796;10.956;2022-11-20T09:19:45;16.90;47.70
67899;DHT22;54699;51.796;10.956;2022-11-20T09:22:13;16.90;47.50
67899;DHT22;54699;51.796;10.956;2022-11-20T09:24:39;17.00;47.60
67899;DHT22;54699;51.796;10.956;2022-11-20T09:27:07;17.10;47.60
67899;DHT22;54699;51.796;10.956;2022-11-20T09:29:33;17.10;47.60
67899;DHT22;54699;51.796;10.956;2022-11-20T09:32:01;17.10;47.60
67899;DHT22;54699;51.796;10.956;2022-11-20T09:34:28;17.10;47.60
67899;DHT22;54699;51.796;10.956;2022-11-20T09:36:55;17.20;47.60
67899;DHT22;54699;51.796;10.956;2022-11-20T09:39:22;17.20;47.30
67899;DHT22;54699;51.796;10.956;2022-11-20T09:42:04;17.20;47.20
67899;DHT22;54699;51.796;10.956;2022-11-20T09:44:47;17.30;47.30
67899;DHT22;54699;51.796;10.956;2022-11-20T09:47:26;17.30;47.30
67899;DHT22;54699;51.796;10.956;2022-11-20T09:50:10;17.30;47.30
67899;DHT22;54699;51.796;10.956;2022-11-20T09:52:47;17.30;47.20
67899;DHT22;54699;51.796;10.956;2022-11-20T09:55:23;17.40;47.00
67899;DHT22;54699;51.796;10.956;2022-11-20T09:57:51;17.40;47.00
67899;DHT22;54699;51.796;10.956;2022-11-20T10:00:19;17.50;47.00
67899;DHT22;54699;51.796;10.956;2022-11-20T10:02:48;17.50;46.90
67899;DHT22;54699;51.796;10.956;2022-11-20T10:05:22;17.50;46.90
67899;DHT22;54699;51.796;10.956;2022-11-20T10:07:55;17.60;46.90
67899;DHT22;54699;51.796;10.956;2022-11-20T10:10:34;17.60;46.90
67899;DHT22;54699;51.796;10.956;2022-11-20T10:13:12;17.60;46.90
67899;DHT22;54699;51.796;10.956;2022-11-20T10:15:54;17.70;47.10
67899;DHT22;54699;51.796;10.956;2022-11-20T10:18:36;17.70;47.20
67899;DHT22;54699;51.796;10.956;2022-11-20T10:21:15;17.70;47.30
67899;DHT22;54699;51.796;10.956;2022-11-20T10:23:56;17.80;47.40
67899;DHT22;54699;51.796;10.956;2022-11-20T10:26:37;17.70;47.40
67899;DHT22;54699;51.796;10.956;2022-11-20T10:29:11;17.70;47.50
67899;DHT22;54699;51.796;10.956;2022-11-20T10:31:40;17.80;47.40
67899;DHT22;54699;51.796;10.956;2022-11-20T10:34:15;17.90;47.40
67899;DHT22;54699;51.796;10.956;2022-11-20T10:36:47;17.90;47.30
67899;DHT22;54699;51.796;10.956;2022-11-20T10:39:21;18.00;47.00
67899;DHT22;54699;51.796;10.956;2022-11-20T10:41:53;18.00;47.10
67899;DHT22;54699;51.796;10.956;2022-11-20T10:44:20;18.00;47.00
67899;DHT22;54699;51.796;10.956;2022-11-20T10:47:09;18.00;46.90
67899;DHT22;54699;51.796;10.956;2022-11-20T10:49:41;18.10;46.70
67899;DHT22;54699;51.796;10.956;2022-11-20T10:52:10;18.10;46.60
67899;DHT22;54699;51.796;10.956;2022-11-20T10:54:45;18.10;46.50
67899;DHT22;54699;51.796;10.956;2022-11-20T10:57:19;18.10;46.40
67899;DHT22;54699;51.796;10.956;2022-11-20T11:00:04;18.10;46.50
67899;DHT22;54699;51.796;10.956;2022-11-20T11:02:35;18.10;45.90
67899;DHT22;54699;51.796;10.956;2022-11-20T11:05:12;18.20;46.00
67899;DHT22;54699;51.796;10.956;2022-11-20T11:07:47;18.20;46.20
67899;DHT22;54699;51.796;10.956;2022-11-20T11:10:17;18.20;45.30
67899;DHT22;54699;51.796;10.956;2022-11-20T11:12:47;18.20;43.70
67899;DHT22;54699;51.796;10.956;2022-11-20T11:15:24;18.20;45.00
67899;DHT22;54699;51.796;10.956;2022-11-20T11:17:53;18.30;45.10
67899;DHT22;54699;51.796;10.956;2022-11-20T11:20:21;18.30;43.50
67899;DHT22;54699;51.796;10.956;2022-11-20T11:22:50;18.40;45.10
67899;DHT22;54699;51.796;10.956;2022-11-20T11:25:19;18.40;45.00
67899;DHT22;54699;51.796;10.956;2022-11-20T11:27:48;18.50;43.60
67899;DHT22;54699;51.796;10.956;2022-11-20T11:30:16;18.50;44.30
67899;DHT22;54699;51.796;10.956;2022-11-20T11:32:44;18.50;44.20
67899;DHT22;54699;51.796;10.956;2022-11-20T11:35:23;18.50;44.50
67899;DHT22;54699;51.796;10.956;2022-11-20T11:37:52;18.50;44.20
67899;DHT22;54699;51.796;10.956;2022-11-20T11:40:28;18.50;44.20
67899;DHT22;54699;51.796;10.956;2022-11-20T11:42:58;18.50;44.20
67899;DHT22;54699;51.796;10.956;2022-11-20T11:45:27;18.50;44.40
67899;DHT22;54699;51.796;10.956;2022-11-20T11:47:54;18.50;44.40
67899;DHT22;54699;51.796;10.956;2022-11-20T11:50:25;18.40;44.40
67899;DHT22;54699;51.796;10.956;2022-11-20T11:52:56;18.50;44.50
67899;DHT22;54699;51.796;10.956;2022-11-20T11:55:31;18.40;44.40
67899;DHT22;54699;51.796;10.956;2022-11-20T11:58:16;18.40;44.50
67899;DHT22;54699;51.796;10.956;2022-11-20T12:00:56;18.40;43.50
67899;DHT22;54699;51.796;10.956;2022-11-20T12:03:29;18.50;43.70
67899;DHT22;54699;51.796;10.956;2022-11-20T12:06:04;18.50;44.50
67899;DHT22;54699;51.796;10.956;2022-11-20T12:08:38;18.50;43.80
67899;DHT22;54699;51.796;10.956;2022-11-20T12:11:11;18.50;43.80
67899;DHT22;54699;51.796;10.956;2022-11-20T12:13:44;18.60;44.20
67899;DHT22;54699;51.796;10.956;2022-11-20T12:16:17;18.60;44.20
67899;DHT22;54699;51.796;10.956;2022-11-20T12:18:46;18.60;44.20
67899;DHT22;54699;51.796;10.956;2022-11-20T12:21:19;18.70;44.70
67899;DHT22;54699;51.796;10.956;2022-11-20T12:23:51;18.70;45.10
67899;DHT22;54699;51.796;10.956;2022-11-20T12:26:33;18.70;44.90
67899;DHT22;54699;51.796;10.956;2022-11-20T12:29:09;18.80;45.10
67899;DHT22;54699;51.796;10.956;2022-11-20T12:31:55;18.80;45.20
67899;DHT22;54699;51.796;10.956;2022-11-20T12:37:32;18.90;45.90
67899;DHT22;54699;51.796;10.956;2022-11-20T12:40:20;18.90;45.90
67899;DHT22;54699;51.796;10.956;2022-11-20T12:43:01;18.90;46.10
67899;DHT22;54699;51.796;10.956;2022-11-20T12:46:05;18.90;46.20
67899;DHT22;54699;51.796;10.956;2022-11-20T12:48:49;18.90;46.40
67899;DHT22;54699;51.796;10.956;2022-11-20T12:51:32;19.00;46.50
67899;DHT22;54699;51.796;10.956;2022-11-20T12:57:08;19.00;46.50
67899;DHT22;54699;51.796;10.956;2022-11-20T12:59:48;19.10;47.00
67899;DHT22;54699;51.796;10.956;2022-11-20T13:02:25;19.10;47.10
67899;DHT22;54699;51.796;10.956;2022-11-20T13:07:46;19.10;47.40
67899;DHT22;54699;51.796;10.956;2022-11-20T13:10:18;19.20;46.90
67899;DHT22;54699;51.796;10.956;2022-11-20T13:12:54;19.20;47.20
67899;DHT22;54699;51.796;10.956;2022-11-20T13:15:31;19.20;47.10
67899;DHT22;54699;51.796;10.956;2022-11-20T13:18:06;19.20;47.40
67899;DHT22;54699;51.796;10.956;2022-11-20T13:20:36;19.20;47.40
67899;DHT22;54699;51.796;10.956;2022-11-20T13:23:08;19.30;47.30
67899;DHT22;54699;51.796;10.956;2022-11-20T13:25:35;19.30;47.50
67899;DHT22;54699;51.796;10.956;2022-11-20T13:28:24;19.30;47.70
67899;DHT22;54699;51.796;10.956;2022-11-20T13:30:55;19.20;47.60
67899;DHT22;54699;51.796;10.956;2022-11-20T13:33:23;19.30;48.00
67899;DHT22;54699;51.796;10.956;2022-11-20T13:35:55;19.30;48.10
67899;DHT22;54699;51.796;10.956;2022-11-20T13:38:22;19.30;47.80
67899;DHT22;54699;51.796;10.956;2022-11-20T13:40:50;19.30;47.90
67899;DHT22;54699;51.796;10.956;2022-11-20T13:43:21;19.30;47.70
67899;DHT22;54699;51.796;10.956;2022-11-20T13:46:00;19.30;47.80
67899;DHT22;54699;51.796;10.956;2022-11-20T13:48:30;19.30;48.10
67899;DHT22;54699;51.796;10.956;2022-11-20T13:51:01;19.20;47.90
67899;DHT22;54699;51.796;10.956;2022-11-20T13:53:37;19.20;47.80
67899;DHT22;54699;51.796;10.956;2022-11-20T13:56:16;19.20;47.70
67899;DHT22;54699;51.796;10.956;2022-11-20T13:58:53;19.20;47.30
67899;DHT22;54699;51.796;10.956;2022-11-20T14:01:30;19.10;46.70
67899;DHT22;54699;51.796;10.956;2022-11-20T14:03:59;19.10;46.00
67899;DHT22;54699;51.796;10.956;2022-11-20T14:06:34;19.10;45.80
67899;DHT22;54699;51.796;10.956;2022-11-20T14:09:10;19.10;46.00
67899;DHT22;54699;51.796;10.956;2022-11-20T14:11:45;19.10;45.50
67899;DHT22;54699;51.796;10.956;2022-11-20T14:14:13;19.00;45.80
67899;DHT22;54699;51.796;10.956;2022-11-20T14:16:44;19.10;46.80
67899;DHT22;54699;51.796;10.956;2022-11-20T14:22:07;19.00;45.50
67899;DHT22;54699;51.796;10.956;2022-11-20T14:24:36;19.00;45.90
67899;DHT22;54699;51.796;10.956;2022-11-20T14:27:03;18.90;45.90
67899;DHT22;54699;51.796;10.956;2022-11-20T14:29:33;18.90;45.80
67899;DHT22;54699;51.796;10.956;2022-11-20T14:32:04;18.90;45.70
67899;DHT22;54699;51.796;10.956;2022-11-20T14:34:32;19.00;45.70
67899;DHT22;54699;51.796;10.956;2022-11-20T14:37:05;18.90;45.60
67899;DHT22;54699;51.796;10.956;2022-11-20T14:39:39;18.90;45.70
67899;DHT22;54699;51.796;10.956;2022-11-20T14:42:14;18.90;44.30
67899;DHT22;54699;51.796;10.956;2022-11-20T14:44:42;18.90;44.30
67899;DHT22;54699;51.796;10.956;2022-11-20T14:47:12;18.90;44.10
67899;DHT22;54699;51.796;10.956;2022-11-20T14:49:41;18.90;43.40
67899;DHT22;54699;51.796;10.956;2022-11-20T14:52:11;18.90;44.50
67899;DHT22;54699;51.796;10.956;2022-11-20T14:54:43;18.90;43.30
67899;DHT22;54699;51.796;10.956;2022-11-20T14:57:20;18.80;44.40
67899;DHT22;54699;51.796;10.956;2022-11-20T15:00:03;18.80;45.20
67899;DHT22;54699;51.796;10.956;2022-11-20T15:02:32;18.80;43.00
67899;DHT22;54699;51.796;10.956;2022-11-20T15:05:00;18.80;45.70
67899;DHT22;54699;51.796;10.956;2022-11-20T15:07:29;18.80;42.50
67899;DHT22;54699;51.796;10.956;2022-11-20T15:10:01;18.80;41.90
67899;DHT22;54699;51.796;10.956;2022-11-20T15:12:31;18.80;47.10
67899;DHT22;54699;51.796;10.956;2022-11-20T15:14:59;18.70;47.50
67899;DHT22;54699;51.796;10.956;2022-11-20T15:17:28;18.70;48.90
67899;DHT22;54699;51.796;10.956;2022-11-20T15:19:56;18.70;49.40
67899;DHT22;54699;51.796;10.956;2022-11-20T15:22:24;18.70;49.80
67899;DHT22;54699;51.796;10.956;2022-11-20T15:24:51;18.70;50.20
67899;DHT22;54699;51.796;10.956;2022-11-20T15:27:18;18.60;50.50
67899;DHT22;54699;51.796;10.956;2022-11-20T15:29:45;18.60;50.50
67899;DHT22;54699;51.796;10.956;2022-11-20T15:32:12;18.60;50.60
67899;DHT22;54699;51.796;10.956;2022-11-20T15:34:39;18.60;50.70
67899;DHT22;54699;51.796;10.956;2022-11-20T15:37:07;18.60;50.50
67899;DHT22;54699;51.796;10.956;2022-11-20T15:39:34;18.60;50.50
67899;DHT22;54699;51.796;10.956;2022-11-20T15:42:02;18.60;50.30
67899;DHT22;54699;51.796;10.956;2022-11-20T15:44:29;18.60;50.30
67899;DHT22;54699;51.796;10.956;2022-11-20T15:46:55;18.60;50.30